createdAt,value
2024-05-09T00:01:14.815Z,100269.80
2024-05-09T00:03:43.802Z,100267.20
2024-05-09T00:06:17.651Z,100261.40
2024-05-09T00:08:47.784Z,100264.40
2024-05-09T00:11:16.429Z,100265.40
2024-05-09T00:13:50.506Z,100261.80
2024-05-09T00:16:21.718Z,100258.40
2024-05-09T00:18:52.612Z,100253.60
2024-05-09T00:21:20.906Z,100251.80
2024-05-09T00:23:52.122Z,100246.00
2024-05-09T00:26:23.702Z,100243.20
2024-05-09T00:28:58.260Z,100242.80
2024-05-09T00:31:27.045Z,100250.20
2024-05-09T00:34:00.744Z,100249.00
2024-05-09T00:36:38.159Z,100239.60
2024-05-09T00:39:21.278Z,100241.80
2024-05-09T00:41:49.821Z,100236.00
2024-05-09T00:44:18.050Z,100234.40
2024-05-09T00:46:46.448Z,100239.80
2024-05-09T00:49:15.058Z,100236.80
2024-05-09T00:51:44.243Z,100232.00
2024-05-09T00:54:12.485Z,100235.40
2024-05-09T00:56:41.588Z,100226.60
2024-05-09T00:59:09.794Z,100232.00
2024-05-09T01:01:39.312Z,100236.00
2024-05-09T01:04:09.813Z,100244.00
2024-05-09T01:06:38.308Z,100247.80
2024-05-09T01:09:06.537Z,100254.80
2024-05-09T01:11:39.460Z,100254.80
2024-05-09T01:14:10.948Z,100258.40
2024-05-09T01:16:39.872Z,100260.60
2024-05-09T01:19:19.944Z,100267.00
2024-05-09T01:21:48.529Z,100265.40
2024-05-09T01:24:16.655Z,100273.80
2024-05-09T01:26:45.073Z,100272.80
2024-05-09T01:29:13.413Z,100269.40
2024-05-09T01:31:41.911Z,100269.20
2024-05-09T01:34:10.051Z,100275.20
2024-05-09T01:36:38.324Z,100276.00
2024-05-09T01:39:06.562Z,100283.20
2024-05-09T01:41:34.658Z,100271.60
2024-05-09T01:44:03.038Z,100275.40
2024-05-09T01:46:40.215Z,100271.00
2024-05-09T01:49:08.672Z,100269.80
2024-05-09T01:52:33.784Z,100270.20
2024-05-09T01:55:33.145Z,100268.80
2024-05-09T01:58:26.673Z,100269.40
2024-05-09T02:01:16.445Z,100267.40
2024-05-09T02:03:50.501Z,100270.80
2024-05-09T02:06:26.467Z,100265.40
2024-05-09T02:09:17.930Z,100270.80
2024-05-09T02:12:40.847Z,100276.80
2024-05-09T02:15:14.778Z,100276.00
2024-05-09T02:17:46.502Z,100278.20
2024-05-09T02:20:22.566Z,100282.60
2024-05-09T02:22:57.520Z,100281.40
2024-05-09T02:25:27.187Z,100285.40
2024-05-09T02:27:55.457Z,100287.80
2024-05-09T02:30:30.999Z,100288.40
2024-05-09T02:33:07.662Z,100299.60
2024-05-09T02:35:36.432Z,100302.60
2024-05-09T02:38:04.786Z,100303.80
2024-05-09T02:40:45.025Z,100307.60
2024-05-09T02:43:16.732Z,100305.60
2024-05-09T02:45:45.080Z,100306.60
2024-05-09T02:48:16.764Z,100307.80
2024-05-09T02:50:55.082Z,100306.20
2024-05-09T02:53:37.413Z,100313.20
2024-05-09T02:56:15.154Z,100314.60
2024-05-09T02:58:46.440Z,100313.40
2024-05-09T03:01:18.153Z,100319.20
2024-05-09T03:03:52.748Z,100322.40
2024-05-09T03:06:55.178Z,100323.20
2024-05-09T03:09:24.137Z,100316.00
2024-05-09T03:11:55.389Z,100311.60
2024-05-09T03:14:26.360Z,100316.20
2024-05-09T03:16:57.406Z,100317.60
2024-05-09T03:19:48.045Z,100314.40
2024-05-09T03:22:18.877Z,100317.20
2024-05-09T03:24:49.633Z,100316.20
2024-05-09T03:27:18.269Z,100311.60
2024-05-09T03:29:46.389Z,100314.00
2024-05-09T03:32:14.706Z,100314.20
2024-05-09T03:34:42.842Z,100309.00
2024-05-09T03:37:16.277Z,100307.60
2024-05-09T03:39:44.762Z,100301.00
2024-05-09T03:42:12.874Z,100306.20
2024-05-09T03:44:41.024Z,100304.00
2024-05-09T03:47:09.187Z,100305.60
2024-05-09T03:49:37.571Z,100298.80
2024-05-09T03:52:06.217Z,100301.40
2024-05-09T03:54:35.398Z,100293.00
2024-05-09T03:57:03.935Z,100293.80
2024-05-09T03:59:36.661Z,100299.40
2024-05-09T04:02:06.325Z,100299.60
2024-05-09T04:04:34.681Z,100300.60
2024-05-09T04:07:05.347Z,100301.60
2024-05-09T04:09:33.468Z,100310.60
2024-05-09T04:12:01.926Z,100314.20
2024-05-09T04:14:30.659Z,100316.60
2024-05-09T04:16:59.000Z,100321.80
2024-05-09T04:19:27.524Z,100322.20
2024-05-09T04:21:56.034Z,100333.20
2024-05-09T04:24:24.137Z,100337.00
2024-05-09T04:26:52.240Z,100338.00
2024-05-09T04:29:20.372Z,100334.80
2024-05-09T04:31:48.709Z,100341.20
2024-05-09T04:34:17.211Z,100345.40
2024-05-09T04:36:45.440Z,100340.20
2024-05-09T04:39:13.580Z,100343.00
2024-05-09T04:41:41.724Z,100344.00
2024-05-09T04:44:09.890Z,100339.80
2024-05-09T04:47:08.495Z,100343.00
2024-05-09T04:49:57.022Z,100348.00
2024-05-09T04:52:43.744Z,100340.80
2024-05-09T04:55:12.035Z,100353.20
2024-05-09T04:57:40.248Z,100353.40
2024-05-09T05:00:14.641Z,100354.20
2024-05-09T05:02:49.312Z,100359.40
2024-05-09T05:05:20.165Z,100362.40
2024-05-09T05:07:48.305Z,100366.60
2024-05-09T05:10:33.773Z,100372.00
2024-05-09T05:13:31.336Z,100381.40
2024-05-09T05:16:10.026Z,100377.80
2024-05-09T05:19:01.181Z,100374.80
2024-05-09T05:21:38.672Z,100379.00
2024-05-09T05:24:07.034Z,100385.40
2024-05-09T05:27:06.537Z,100384.40
2024-05-09T05:29:36.996Z,100381.80
2024-05-09T05:32:28.597Z,100399.00
2024-05-09T05:35:05.493Z,100390.40
2024-05-09T05:37:55.313Z,100391.60
2024-05-09T05:40:39.665Z,100403.60
2024-05-09T05:43:15.674Z,100397.00
2024-05-09T05:45:57.630Z,100396.80
2024-05-09T05:48:46.137Z,100405.00
2024-05-09T05:51:21.667Z,100404.40
2024-05-09T05:53:49.899Z,100405.60
2024-05-09T05:56:21.222Z,100411.60
2024-05-09T05:58:49.726Z,100412.60
2024-05-09T06:01:18.053Z,100415.20
2024-05-09T06:03:46.548Z,100421.80
2024-05-09T06:06:15.041Z,100424.80
2024-05-09T06:08:43.261Z,100430.60
2024-05-09T06:11:11.595Z,100426.40
2024-05-09T06:13:43.264Z,100425.80
2024-05-09T06:16:11.292Z,100436.00
2024-05-09T06:18:57.673Z,100437.40
2024-05-09T06:21:33.810Z,100440.40
2024-05-09T06:24:17.853Z,100443.60
2024-05-09T06:27:01.550Z,100445.20
2024-05-09T06:29:35.967Z,100451.80
2024-05-09T06:32:43.359Z,100458.20
2024-05-09T06:35:11.898Z,100462.80
2024-05-09T06:37:40.045Z,100462.40
2024-05-09T06:40:09.938Z,100470.60
2024-05-09T06:42:38.285Z,100473.20
2024-05-09T06:45:06.728Z,100474.40
2024-05-09T06:47:35.114Z,100476.80
2024-05-09T06:50:04.888Z,100478.40
2024-05-09T06:52:34.525Z,100485.40
2024-05-09T06:55:03.143Z,100480.40
2024-05-09T06:57:33.925Z,100479.20
2024-05-09T07:00:02.223Z,100482.60
2024-05-09T07:02:31.924Z,100482.00
2024-05-09T07:05:09.143Z,100485.80
2024-05-09T07:07:40.748Z,100487.00
2024-05-09T07:10:14.955Z,100487.00
2024-05-09T07:13:09.755Z,100486.40
2024-05-09T07:15:38.412Z,100487.60
2024-05-09T07:18:18.467Z,100484.80
2024-05-09T07:20:50.689Z,100483.20
2024-05-09T07:23:29.803Z,100493.40
2024-05-09T07:26:27.776Z,100485.40
2024-05-09T07:28:59.017Z,100481.00
2024-05-09T07:32:07.668Z,100482.40
2024-05-09T07:34:38.971Z,100480.40
2024-05-09T07:37:12.544Z,100482.40
2024-05-09T07:39:41.217Z,100489.60
2024-05-09T07:42:12.215Z,100484.40
2024-05-09T07:44:40.796Z,100491.40
2024-05-09T07:48:14.708Z,100493.40
2024-05-09T07:51:32.956Z,100492.20
2024-05-09T07:53:34.598Z,100496.80
2024-05-09T07:55:37.148Z,100494.40
2024-05-09T07:58:07.587Z,100495.80
2024-05-09T08:00:35.895Z,100492.00
2024-05-09T08:03:14.330Z,100500.80
2024-05-09T08:06:01.489Z,100505.00
2024-05-09T08:08:44.080Z,100506.20
2024-05-09T08:11:12.600Z,100502.40
2024-05-09T08:13:44.692Z,100507.40
2024-05-09T08:16:44.117Z,100509.00
2024-05-09T08:19:15.961Z,100524.20
2024-05-09T08:22:09.937Z,100519.40
2024-05-09T08:24:58.972Z,100513.60
2024-05-09T08:28:01.343Z,100514.00
2024-05-09T08:30:47.996Z,100513.40
2024-05-09T08:33:21.849Z,100515.40
2024-05-09T08:35:53.614Z,100515.60
2024-05-09T08:38:21.904Z,100516.00
2024-05-09T08:40:55.933Z,100521.20
2024-05-09T08:44:13.583Z,100519.40
2024-05-09T08:46:49.194Z,100517.80
2024-05-09T08:49:17.820Z,100527.80
2024-05-09T08:51:49.170Z,100523.80
2024-05-09T08:54:17.910Z,100529.40
2024-05-09T08:56:48.184Z,100524.60
2024-05-09T08:59:22.418Z,100528.00
2024-05-09T09:01:50.643Z,100534.60
2024-05-09T09:04:19.949Z,100529.40
2024-05-09T09:06:50.649Z,100536.00
2024-05-09T09:09:20.066Z,100539.80
2024-05-09T09:11:50.779Z,100537.80
2024-05-09T09:14:18.912Z,100543.20
2024-05-09T09:16:46.955Z,100541.20
2024-05-09T09:19:40.004Z,100546.00
2024-05-09T09:22:10.845Z,100560.60
2024-05-09T09:24:44.266Z,100551.60
2024-05-09T09:27:35.530Z,100558.00
2024-05-09T09:30:15.606Z,100559.80
2024-05-09T09:33:01.192Z,100554.40
2024-05-09T09:35:40.454Z,100570.00
2024-05-09T09:38:38.529Z,100566.40
2024-05-09T09:41:19.785Z,100571.60
2024-05-09T09:43:48.299Z,100577.40
2024-05-09T09:46:19.206Z,100580.00
2024-05-09T09:48:51.793Z,100582.00
2024-05-09T09:51:21.362Z,100589.80
2024-05-09T09:53:52.560Z,100589.00
2024-05-09T09:56:21.836Z,100588.00
2024-05-09T09:58:51.095Z,100597.40
2024-05-09T10:01:19.522Z,100593.60
2024-05-09T10:03:48.132Z,100594.40
2024-05-09T10:06:18.744Z,100596.60
2024-05-09T10:08:48.675Z,100595.60
2024-05-09T10:11:21.949Z,100593.40
2024-05-09T10:13:53.387Z,100595.20
2024-05-09T10:16:24.358Z,100593.40
2024-05-09T10:18:55.770Z,100598.20
2024-05-09T10:21:33.238Z,100599.80
2024-05-09T10:24:07.042Z,100599.60
2024-05-09T10:26:39.266Z,100595.00
2024-05-09T10:29:15.716Z,100599.60
2024-05-09T10:31:46.604Z,100603.80
2024-05-09T10:34:34.342Z,100604.00
2024-05-09T10:37:04.945Z,100595.00
2024-05-09T10:39:37.098Z,100600.40
2024-05-09T10:42:10.050Z,100596.40
2024-05-09T10:44:38.723Z,100592.40
2024-05-09T10:47:09.515Z,100595.00
2024-05-09T10:49:41.151Z,100594.60
2024-05-09T10:52:10.314Z,100593.20
2024-05-09T10:54:39.334Z,100595.60
2024-05-09T10:57:07.705Z,100595.40
2024-05-09T10:59:37.257Z,100595.60
2024-05-09T11:02:09.779Z,100596.80
2024-05-09T11:04:42.921Z,100601.40
2024-05-09T11:07:17.150Z,100595.60
2024-05-09T11:09:45.882Z,100597.80
2024-05-09T11:12:14.367Z,100599.00
2024-05-09T11:14:52.837Z,100598.20
2024-05-09T11:17:21.040Z,100598.40
2024-05-09T11:19:50.630Z,100601.80
2024-05-09T11:22:18.898Z,100601.80
2024-05-09T11:24:47.220Z,100604.80
2024-05-09T11:27:15.228Z,100599.20
2024-05-09T11:29:44.783Z,100598.40
2024-05-09T11:32:16.438Z,100592.80
2024-05-09T11:34:44.776Z,100590.60
2024-05-09T11:37:13.596Z,100593.00
2024-05-09T11:39:41.992Z,100593.60
2024-05-09T11:42:10.326Z,100594.80
2024-05-09T11:44:38.401Z,100594.20
2024-05-09T11:47:14.314Z,100591.80
2024-05-09T11:49:43.926Z,100590.00
2024-05-09T11:52:12.211Z,100585.20
2024-05-09T11:54:43.385Z,100582.20
2024-05-09T11:57:11.489Z,100582.20
2024-05-09T11:59:39.575Z,100586.80
2024-05-09T12:02:07.871Z,100583.40
2024-05-09T12:04:36.441Z,100579.60
2024-05-09T12:07:04.934Z,100583.40
2024-05-09T12:09:34.165Z,100580.00
2024-05-09T12:12:22.773Z,100579.80
2024-05-09T12:14:53.580Z,100580.40
2024-05-09T12:17:21.873Z,100575.40
2024-05-09T12:19:52.553Z,100576.40
2024-05-09T12:22:31.333Z,100576.00
2024-05-09T12:25:04.829Z,100573.00
2024-05-09T12:27:33.191Z,100571.00
2024-05-09T12:30:01.434Z,100571.20
2024-05-09T12:32:29.911Z,100563.40
2024-05-09T12:34:58.418Z,100565.60
2024-05-09T12:37:27.046Z,100564.40
2024-05-09T12:39:57.676Z,100564.00
2024-05-09T12:42:28.035Z,100562.00
2024-05-09T12:44:57.367Z,100559.60
2024-05-09T12:47:25.529Z,100563.60
2024-05-09T12:49:54.038Z,100563.80
2024-05-09T12:52:22.545Z,100564.20
2024-05-09T12:54:50.838Z,100558.40
2024-05-09T12:57:19.135Z,100558.80
2024-05-09T12:59:47.503Z,100555.00
2024-05-09T13:02:15.899Z,100554.00
2024-05-09T13:04:44.321Z,100553.40
2024-05-09T13:07:12.671Z,100552.00
2024-05-09T13:09:41.302Z,100553.40
2024-05-09T13:12:09.644Z,100551.40
2024-05-09T13:14:37.749Z,100551.00
2024-05-09T13:17:05.964Z,100549.80
2024-05-09T13:19:34.203Z,100550.60
2024-05-09T13:22:02.682Z,100550.60
2024-05-09T13:24:30.998Z,100542.80
2024-05-09T13:26:59.371Z,100540.60
2024-05-09T13:29:27.479Z,100537.80
2024-05-09T13:31:55.457Z,100534.20
2024-05-09T13:34:23.477Z,100536.60
2024-05-09T13:36:54.822Z,100536.60
2024-05-09T13:39:22.847Z,100533.80
2024-05-09T13:41:51.080Z,100532.80
2024-05-09T13:44:19.065Z,100532.80
2024-05-09T13:46:56.312Z,100531.40
2024-05-09T13:49:24.664Z,100530.00
2024-05-09T13:51:52.798Z,100529.00
2024-05-09T13:54:22.685Z,100530.80
2024-05-09T13:56:52.171Z,100526.60
2024-05-09T13:59:23.548Z,100520.80
2024-05-09T14:01:52.173Z,100525.20
2024-05-09T14:04:20.661Z,100521.60
2024-05-09T14:06:49.147Z,100524.20
2024-05-09T14:09:17.397Z,100525.00
2024-05-09T14:11:45.492Z,100529.00
2024-05-09T14:14:13.562Z,100532.40
2024-05-09T14:16:42.311Z,100524.60
2024-05-09T14:19:10.586Z,100525.40
2024-05-09T14:21:38.727Z,100525.20
2024-05-09T14:24:08.694Z,100524.60
2024-05-09T14:26:36.859Z,100524.00
2024-05-09T14:29:05.030Z,100523.40
2024-05-09T14:31:35.455Z,100522.80
2024-05-09T14:34:04.453Z,100524.80
2024-05-09T14:36:33.947Z,100526.20
2024-05-09T14:39:02.141Z,100520.00
2024-05-09T14:41:40.660Z,100519.60
2024-05-09T14:44:08.867Z,100522.00
2024-05-09T14:46:36.803Z,100522.60
2024-05-09T14:49:05.749Z,100516.00
2024-05-09T14:51:34.498Z,100518.20
2024-05-09T14:54:02.828Z,100523.20
2024-05-09T14:56:31.491Z,100521.00
2024-05-09T14:58:59.863Z,100520.00
2024-05-09T15:01:28.371Z,100520.00
2024-05-09T15:03:57.122Z,100520.60
2024-05-09T15:06:25.651Z,100517.40
2024-05-09T15:08:59.694Z,100517.40
2024-05-09T15:11:27.767Z,100518.20
2024-05-09T15:13:55.941Z,100517.60
2024-05-09T15:16:24.625Z,100514.80
2024-05-09T15:18:52.949Z,100515.00
2024-05-09T15:21:20.915Z,100509.60
2024-05-09T15:23:48.946Z,100515.00
2024-05-09T15:26:16.964Z,100512.60
2024-05-09T15:28:44.860Z,100511.00
2024-05-09T15:31:12.851Z,100507.40
2024-05-09T15:33:42.643Z,100507.40
2024-05-09T15:36:11.056Z,100509.20
2024-05-09T15:38:39.351Z,100514.00
2024-05-09T15:41:07.651Z,100516.20
2024-05-09T15:43:36.442Z,100512.40
2024-05-09T15:46:07.868Z,100512.20
2024-05-09T15:48:36.509Z,100511.00
2024-05-09T15:51:04.904Z,100513.40
2024-05-09T15:53:33.177Z,100510.40
2024-05-09T15:56:01.277Z,100511.20
2024-05-09T15:58:29.587Z,100507.40
2024-05-09T16:00:57.945Z,100508.60
2024-05-09T16:03:26.481Z,100506.00
2024-05-09T16:05:57.456Z,100503.20
2024-05-09T16:08:25.960Z,100502.40
2024-05-09T16:10:58.286Z,100504.20
2024-05-09T16:13:26.899Z,100507.00
2024-05-09T16:15:55.269Z,100501.20
2024-05-09T16:18:24.028Z,100506.00
2024-05-09T16:20:59.859Z,100507.60
2024-05-09T16:23:29.122Z,100504.40
2024-05-09T16:25:57.529Z,100504.20
2024-05-09T16:28:27.015Z,100507.60
2024-05-09T16:30:55.638Z,100506.60
2024-05-09T16:33:25.890Z,100509.20
2024-05-09T16:35:54.497Z,100510.80
2024-05-09T16:38:22.691Z,100511.40
2024-05-09T16:40:52.612Z,100511.80
2024-05-09T16:43:21.499Z,100511.40
2024-05-09T16:45:51.024Z,100514.20
2024-05-09T16:48:20.149Z,100517.40
2024-05-09T16:50:49.001Z,100520.60
2024-05-09T16:53:17.144Z,100521.20
2024-05-09T16:55:45.121Z,100528.60
2024-05-09T16:58:13.624Z,100528.00
2024-05-09T17:00:43.706Z,100533.00
2024-05-09T17:03:16.799Z,100531.20
2024-05-09T17:05:50.167Z,100538.00
2024-05-09T17:08:19.854Z,100537.60
2024-05-09T17:10:49.711Z,100540.40
2024-05-09T17:13:19.207Z,100547.00
2024-05-09T17:15:49.526Z,100546.60
2024-05-09T17:18:18.126Z,100550.80
2024-05-09T17:20:46.337Z,100549.80
2024-05-09T17:23:14.769Z,100553.80
2024-05-09T17:25:44.330Z,100555.80
2024-05-09T17:28:12.782Z,100554.40
2024-05-09T17:30:42.394Z,100556.80
2024-05-09T17:33:12.881Z,100557.60
2024-05-09T17:35:41.656Z,100560.40
2024-05-09T17:38:09.737Z,100560.40
2024-05-09T17:40:39.032Z,100565.60
2024-05-09T17:43:09.739Z,100565.00
2024-05-09T17:45:40.784Z,100564.60
2024-05-09T17:48:13.778Z,100566.40
2024-05-09T17:50:45.591Z,100566.00
2024-05-09T17:53:13.753Z,100564.20
2024-05-09T17:55:42.568Z,100563.80
2024-05-09T17:58:14.232Z,100562.60
2024-05-09T18:00:42.880Z,100561.80
2024-05-09T18:03:12.876Z,100562.20
2024-05-09T18:05:44.630Z,100567.60
2024-05-09T18:08:15.805Z,100573.00
2024-05-09T18:10:46.483Z,100578.20
2024-05-09T18:13:23.761Z,100572.20
2024-05-09T18:15:52.298Z,100575.20
2024-05-09T18:18:20.721Z,100571.20
2024-05-09T18:20:49.313Z,100576.80
2024-05-09T18:23:18.656Z,100576.20
2024-05-09T18:25:48.282Z,100578.00
2024-05-09T18:28:17.694Z,100575.80
2024-05-09T18:30:51.452Z,100585.60
2024-05-09T18:33:20.386Z,100585.20
2024-05-09T18:35:48.879Z,100586.80
2024-05-09T18:38:18.343Z,100587.60
2024-05-09T18:40:48.983Z,100589.20
2024-05-09T18:43:19.016Z,100593.20
2024-05-09T18:45:50.555Z,100594.00
2024-05-09T18:48:19.263Z,100594.40
2024-05-09T18:50:52.150Z,100595.00
2024-05-09T18:53:20.562Z,100596.60
2024-05-09T18:55:48.525Z,100600.40
2024-05-09T18:58:19.891Z,100600.80
2024-05-09T19:00:50.372Z,100607.20
2024-05-09T19:03:20.623Z,100610.00
2024-05-09T19:05:49.172Z,100609.40
2024-05-09T19:08:17.342Z,100608.40
2024-05-09T19:10:46.072Z,100611.00
2024-05-09T19:13:15.412Z,100619.20
2024-05-09T19:15:44.496Z,100622.60
2024-05-09T19:18:14.235Z,100628.00
2024-05-09T19:20:43.905Z,100628.80
2024-05-09T19:23:13.382Z,100633.20
2024-05-09T19:25:44.698Z,100632.20
2024-05-09T19:28:12.933Z,100629.40
2024-05-09T19:30:43.523Z,100632.60
2024-05-09T19:33:13.453Z,100631.80
2024-05-09T19:35:43.658Z,100631.60
2024-05-09T19:38:12.660Z,100627.00
2024-05-09T19:40:41.892Z,100629.60
2024-05-09T19:43:11.135Z,100629.40
2024-05-09T19:45:39.905Z,100628.80
2024-05-09T19:48:08.873Z,100625.60
2024-05-09T19:50:42.820Z,100624.20
2024-05-09T19:53:14.621Z,100625.60
2024-05-09T19:55:43.692Z,100627.20
2024-05-09T19:58:12.878Z,100631.40
2024-05-09T20:00:43.587Z,100636.80
2024-05-09T20:03:15.223Z,100635.00
2024-05-09T20:05:48.015Z,100634.60
2024-05-09T20:08:16.709Z,100635.20
2024-05-09T20:10:44.912Z,100635.60
2024-05-09T20:13:14.186Z,100632.40
2024-05-09T20:15:42.793Z,100635.60
2024-05-09T20:18:11.863Z,100639.60
2024-05-09T20:20:42.976Z,100639.00
2024-05-09T20:23:13.472Z,100644.60
2024-05-09T20:25:42.219Z,100644.00
2024-05-09T20:28:10.847Z,100643.40
2024-05-09T20:30:40.957Z,100644.40
2024-05-09T20:33:10.124Z,100640.40
2024-05-09T20:35:38.712Z,100639.00
2024-05-09T20:38:06.976Z,100640.60
2024-05-09T20:40:38.081Z,100643.00
2024-05-09T20:43:09.725Z,100639.60
2024-05-09T20:45:39.227Z,100641.20
2024-05-09T20:48:08.979Z,100639.20
2024-05-09T20:50:40.936Z,100643.20
2024-05-09T20:53:13.551Z,100643.40
2024-05-09T20:55:43.815Z,100642.00
2024-05-09T20:58:13.129Z,100641.20
2024-05-09T21:00:44.554Z,100645.60
2024-05-09T21:03:16.752Z,100645.00
2024-05-09T21:05:47.577Z,100646.60
2024-05-09T21:08:16.321Z,100649.60
2024-05-09T21:10:44.922Z,100652.80
2024-05-09T21:13:13.402Z,100650.20
2024-05-09T21:15:41.627Z,100651.40
2024-05-09T21:18:09.806Z,100647.80
2024-05-09T21:20:38.214Z,100649.40
2024-05-09T21:23:08.819Z,100648.80
2024-05-09T21:25:36.833Z,100649.00
2024-05-09T21:28:05.207Z,100649.60
2024-05-09T21:30:41.125Z,100647.60
2024-05-09T21:33:13.959Z,100647.40
2024-05-09T21:35:46.322Z,100641.80
2024-05-09T21:38:28.500Z,100643.00
2024-05-09T21:40:59.023Z,100643.40
2024-05-09T21:43:29.869Z,100637.60
2024-05-09T21:45:58.272Z,100637.60
2024-05-09T21:48:35.551Z,100643.60
2024-05-09T21:51:13.343Z,100642.00
2024-05-09T21:53:42.012Z,100641.00
2024-05-09T21:56:10.415Z,100641.00
2024-05-09T21:58:38.594Z,100642.20
2024-05-09T22:01:06.929Z,100645.40
2024-05-09T22:03:35.757Z,100644.00
2024-05-09T22:06:09.691Z,100647.20
2024-05-09T22:08:37.834Z,100648.00
2024-05-09T22:11:08.956Z,100652.20
2024-05-09T22:13:40.055Z,100654.40
2024-05-09T22:16:17.777Z,100654.40
2024-05-09T22:18:48.984Z,100655.00
2024-05-09T22:21:17.749Z,100655.60
2024-05-09T22:23:45.979Z,100653.60
2024-05-09T22:26:14.097Z,100653.40
2024-05-09T22:28:42.727Z,100655.80
2024-05-09T22:31:10.742Z,100652.60
2024-05-09T22:33:39.102Z,100652.40
2024-05-09T22:36:08.486Z,100651.60
2024-05-09T22:38:36.606Z,100655.60
2024-05-09T22:41:07.846Z,100651.80
2024-05-09T22:43:35.872Z,100652.20
2024-05-09T22:46:03.971Z,100646.60
2024-05-09T22:48:32.108Z,100645.20
2024-05-09T22:51:06.784Z,100643.20
2024-05-09T22:53:34.932Z,100641.20
2024-05-09T22:56:03.075Z,100641.00
2024-05-09T22:58:31.366Z,100639.00
2024-05-09T23:00:59.788Z,100636.00
2024-05-09T23:03:28.104Z,100636.20
2024-05-09T23:06:05.528Z,100632.80
2024-05-09T23:08:33.640Z,100636.60
2024-05-09T23:11:03.884Z,100631.00
2024-05-09T23:13:33.587Z,100628.80
2024-05-09T23:16:03.147Z,100627.20
2024-05-09T23:18:31.440Z,100628.60
2024-05-09T23:21:00.923Z,100629.40
2024-05-09T23:23:29.254Z,100626.80
2024-05-09T23:25:59.848Z,100624.80
2024-05-09T23:28:28.192Z,100625.60
2024-05-09T23:30:56.366Z,100618.40
2024-05-09T23:33:24.785Z,100617.80
2024-05-09T23:35:56.080Z,100614.80
2024-05-09T23:38:24.745Z,100615.20
2024-05-09T23:40:59.062Z,100614.60
2024-05-09T23:43:33.345Z,100611.20
2024-05-09T23:46:27.902Z,100609.60
2024-05-09T23:49:18.307Z,100609.40
2024-05-09T23:52:30.344Z,100612.00
2024-05-09T23:56:11.891Z,100610.20
2024-05-09T23:58:56.699Z,100612.00
